sensor_id;sensor_type;location;lat;lon;timestamp;pressure;altitude;pressure_sealevel;temperature;humidity
32747;BME280;19118;50.860;13.662;2023-02-16T00:02:01;97631.84;;;-0.22;100.00
32747;BME280;19118;50.860;13.662;2023-02-16T00:07:01;97629.63;;;0.41;100.00
32747;BME280;19118;50.860;13.662;2023-02-16T00:12:01;97638.13;;;0.65;100.00
32747;BME280;19118;50.860;13.662;2023-02-16T00:17:20;97646.56;;;1.12;100.00
32747;BME280;19118;50.860;13.662;2023-02-16T00:22:21;97650.63;;;1.05;100.00
32747;BME280;19118;50.860;13.662;2023-02-16T00:27:21;97648.06;;;0.82;100.00
32747;BME280;19118;50.860;13.662;2023-02-16T00:32:24;97655.72;;;0.95;100.00
32747;BME280;19118;50.860;13.662;2023-02-16T00:37:24;97654.47;;;1.22;100.00
32747;BME280;19118;50.860;13.662;2023-02-16T00:42:28;97663.13;;;1.22;100.00
32747;BME280;19118;50.860;13.662;2023-02-16T00:47:37;97646.34;;;1.15;100.00
32747;BME280;19118;50.860;13.662;2023-02-16T00:52:39;97646.56;;;1.12;100.00
32747;BME280;19118;50.860;13.662;2023-02-16T00:57:50;97642.72;;;0.84;100.00
32747;BME280;19118;50.860;13.662;2023-02-16T01:02:53;97650.53;;;0.95;100.00
32747;BME280;19118;50.860;13.662;2023-02-16T01:07:54;97650.78;;;1.24;100.00
32747;BME280;19118;50.860;13.662;2023-02-16T01:13:13;97649.06;;;1.13;100.00
32747;BME280;19118;50.860;13.662;2023-02-16T01:18:16;97655.13;;;1.03;100.00
32747;BME280;19118;50.860;13.662;2023-02-16T01:23:17;97644.28;;;0.75;100.00
32747;BME280;19118;50.860;13.662;2023-02-16T01:28:20;97644.78;;;0.47;100.00
32747;BME280;19118;50.860;13.662;2023-02-16T01:33:21;97636.72;;;0.50;100.00
32747;BME280;19118;50.860;13.662;2023-02-16T01:38:26;97623.25;;;0.34;100.00
32747;BME280;19118;50.860;13.662;2023-02-16T01:43:43;97620.28;;;0.16;100.00
32747;BME280;19118;50.860;13.662;2023-02-16T01:48:45;97612.94;;;-0.02;100.00
32747;BME280;19118;50.860;13.662;2023-02-16T01:59:17;97603.84;;;-0.07;100.00
32747;BME280;19118;50.860;13.662;2023-02-16T02:04:24;97609.25;;;-0.33;100.00
32747;BME280;19118;50.860;13.662;2023-02-16T02:09:56;97598.59;;;-0.41;100.00
32747;BME280;19118;50.860;13.662;2023-02-16T02:15:01;97602.34;;;-0.56;100.00
32747;BME280;19118;50.860;13.662;2023-02-16T02:20:09;97590.00;;;-0.76;100.00
32747;BME280;19118;50.860;13.662;2023-02-16T02:25:17;97598.91;;;-0.80;100.00
32747;BME280;19118;50.860;13.662;2023-02-16T02:30:38;97596.19;;;-0.55;100.00
32747;BME280;19118;50.860;13.662;2023-02-16T02:40:55;97605.97;;;0.33;100.00
32747;BME280;19118;50.860;13.662;2023-02-16T02:46:07;97604.81;;;0.37;100.00
32747;BME280;19118;50.860;13.662;2023-02-16T02:51:11;97606.09;;;0.42;100.00
32747;BME280;19118;50.860;13.662;2023-02-16T02:56:30;97611.19;;;0.33;100.00
32747;BME280;19118;50.860;13.662;2023-02-16T03:01:53;97619.22;;;0.63;100.00
32747;BME280;19118;50.860;13.662;2023-02-16T03:06:56;97603.97;;;1.02;100.00
32747;BME280;19118;50.860;13.662;2023-02-16T03:11:58;97601.19;;;0.94;100.00
32747;BME280;19118;50.860;13.662;2023-02-16T03:17:21;97599.13;;;1.08;100.00
32747;BME280;19118;50.860;13.662;2023-02-16T03:22:43;97604.06;;;1.11;100.00
32747;BME280;19118;50.860;13.662;2023-02-16T03:28:05;97600.50;;;1.44;100.00
32747;BME280;19118;50.860;13.662;2023-02-16T03:33:24;97603.63;;;1.80;100.00
32747;BME280;19118;50.860;13.662;2023-02-16T03:38:26;97607.25;;;1.68;100.00
32747;BME280;19118;50.860;13.662;2023-02-16T03:43:27;97607.03;;;1.71;100.00
32747;BME280;19118;50.860;13.662;2023-02-16T03:48:28;97601.97;;;1.58;100.00
32747;BME280;19118;50.860;13.662;2023-02-16T03:53:28;97601.34;;;1.66;100.00
32747;BME280;19118;50.860;13.662;2023-02-16T03:58:28;97596.59;;;1.71;100.00
32747;BME280;19118;50.860;13.662;2023-02-16T04:03:29;97603.72;;;1.48;100.00
32747;BME280;19118;50.860;13.662;2023-02-16T04:08:29;97598.94;;;1.53;100.00
32747;BME280;19118;50.860;13.662;2023-02-16T04:13:29;97607.88;;;1.39;100.00
32747;BME280;19118;50.860;13.662;2023-02-16T04:18:30;97608.28;;;1.24;100.00
32747;BME280;19118;50.860;13.662;2023-02-16T04:23:30;97607.34;;;1.25;100.00
32747;BME280;19118;50.860;13.662;2023-02-16T04:28:30;97604.59;;;1.37;100.00
32747;BME280;19118;50.860;13.662;2023-02-16T04:33:30;97599.50;;;1.57;100.00
32747;BME280;19118;50.860;13.662;2023-02-16T04:38:31;97602.03;;;1.68;100.00
32747;BME280;19118;50.860;13.662;2023-02-16T04:43:31;97592.25;;;1.81;100.00
32747;BME280;19118;50.860;13.662;2023-02-16T04:48:32;97592.34;;;2.00;100.00
32747;BME280;19118;50.860;13.662;2023-02-16T04:53:32;97591.25;;;1.93;100.00
32747;BME280;19118;50.860;13.662;2023-02-16T04:58:33;97588.16;;;1.88;100.00
32747;BME280;19118;50.860;13.662;2023-02-16T05:03:33;97585.63;;;1.77;100.00
32747;BME280;19118;50.860;13.662;2023-02-16T05:08:34;97592.38;;;1.80;100.00
32747;BME280;19118;50.860;13.662;2023-02-16T05:13:34;97574.72;;;1.83;100.00
32747;BME280;19118;50.860;13.662;2023-02-16T05:18:53;97577.75;;;1.88;100.00
32747;BME280;19118;50.860;13.662;2023-02-16T05:23:53;97577.94;;;1.96;100.00
32747;BME280;19118;50.860;13.662;2023-02-16T05:28:54;97584.09;;;1.95;100.00
32747;BME280;19118;50.860;13.662;2023-02-16T05:33:54;97593.13;;;1.91;100.00
32747;BME280;19118;50.860;13.662;2023-02-16T05:38:55;97593.91;;;1.82;100.00
32747;BME280;19118;50.860;13.662;2023-02-16T05:43:58;97603.25;;;1.85;100.00
32747;BME280;19118;50.860;13.662;2023-02-16T05:48:59;97603.66;;;1.59;100.00
32747;BME280;19118;50.860;13.662;2023-02-16T05:54:00;97604.91;;;1.65;100.00
32747;BME280;19118;50.860;13.662;2023-02-16T05:59:00;97600.31;;;1.57;100.00
32747;BME280;19118;50.860;13.662;2023-02-16T06:04:01;97598.53;;;1.79;100.00
32747;BME280;19118;50.860;13.662;2023-02-16T06:09:03;97606.75;;;1.74;100.00
32747;BME280;19118;50.860;13.662;2023-02-16T06:14:04;97606.34;;;1.58;100.00
32747;BME280;19118;50.860;13.662;2023-02-16T06:19:06;97603.53;;;1.82;100.00
32747;BME280;19118;50.860;13.662;2023-02-16T06:24:08;97596.19;;;1.75;100.00
32747;BME280;19118;50.860;13.662;2023-02-16T06:29:09;97614.78;;;1.82;100.00
32747;BME280;19118;50.860;13.662;2023-02-16T06:34:09;97614.25;;;1.88;100.00
32747;BME280;19118;50.860;13.662;2023-02-16T06:39:10;97619.31;;;1.69;100.00
32747;BME280;19118;50.860;13.662;2023-02-16T06:44:12;97613.81;;;2.04;100.00
32747;BME280;19118;50.860;13.662;2023-02-16T06:49:16;97610.81;;;2.09;100.00
32747;BME280;19118;50.860;13.662;2023-02-16T06:54:19;97613.31;;;2.20;100.00
32747;BME280;19118;50.860;13.662;2023-02-16T06:59:20;97610.09;;;2.27;100.00
32747;BME280;19118;50.860;13.662;2023-02-16T07:04:20;97616.53;;;2.33;100.00
32747;BME280;19118;50.860;13.662;2023-02-16T07:09:20;97600.97;;;2.22;100.00
32747;BME280;19118;50.860;13.662;2023-02-16T07:14:21;97609.44;;;2.14;100.00
32747;BME280;19118;50.860;13.662;2023-02-16T07:19:21;97599.88;;;2.24;100.00
32747;BME280;19118;50.860;13.662;2023-02-16T07:24:22;97604.88;;;2.27;100.00
32747;BME280;19118;50.860;13.662;2023-02-16T07:29:22;97612.31;;;2.11;100.00
32747;BME280;19118;50.860;13.662;2023-02-16T07:34:22;97608.63;;;2.14;100.00
32747;BME280;19118;50.860;13.662;2023-02-16T07:39:23;97605.41;;;2.31;100.00
32747;BME280;19118;50.860;13.662;2023-02-16T07:44:23;97614.28;;;2.49;100.00
32747;BME280;19118;50.860;13.662;2023-02-16T07:49:23;97611.19;;;2.65;100.00
32747;BME280;19118;50.860;13.662;2023-02-16T07:54:24;97610.25;;;2.76;100.00
32747;BME280;19118;50.860;13.662;2023-02-16T07:59:24;97598.16;;;2.94;100.00
32747;BME280;19118;50.860;13.662;2023-02-16T08:04:24;97602.63;;;3.22;100.00
32747;BME280;19118;50.860;13.662;2023-02-16T08:09:25;97603.84;;;3.57;100.00
32747;BME280;19118;50.860;13.662;2023-02-16T08:14:25;97595.56;;;3.81;100.00
32747;BME280;19118;50.860;13.662;2023-02-16T08:19:26;97617.44;;;3.99;100.00
32747;BME280;19118;50.860;13.662;2023-02-16T08:24:28;97621.91;;;4.26;100.00
32747;BME280;19118;50.860;13.662;2023-02-16T08:29:29;97621.41;;;4.50;100.00
32747;BME280;19118;50.860;13.662;2023-02-16T08:34:30;97628.94;;;4.90;100.00
32747;BME280;19118;50.860;13.662;2023-02-16T08:39:31;97628.53;;;5.13;100.00
32747;BME280;19118;50.860;13.662;2023-02-16T08:44:32;97643.84;;;5.35;100.00
32747;BME280;19118;50.860;13.662;2023-02-16T08:49:33;97643.19;;;5.69;100.00
32747;BME280;19118;50.860;13.662;2023-02-16T08:54:33;97650.41;;;6.10;100.00
32747;BME280;19118;50.860;13.662;2023-02-16T08:59:33;97637.88;;;6.48;98.94
32747;BME280;19118;50.860;13.662;2023-02-16T09:04:34;97638.84;;;6.81;93.50
32747;BME280;19118;50.860;13.662;2023-02-16T09:09:35;97642.38;;;7.06;89.79
32747;BME280;19118;50.860;13.662;2023-02-16T09:14:36;97630.63;;;7.35;89.69
32747;BME280;19118;50.860;13.662;2023-02-16T09:19:36;97622.75;;;7.67;87.92
32747;BME280;19118;50.860;13.662;2023-02-16T09:24:37;97630.50;;;7.77;87.45
32747;BME280;19118;50.860;13.662;2023-02-16T09:29:37;97628.38;;;7.88;87.28
32747;BME280;19118;50.860;13.662;2023-02-16T09:34:37;97625.41;;;8.16;88.38
32747;BME280;19118;50.860;13.662;2023-02-16T09:39:38;97626.19;;;8.33;87.85
32747;BME280;19118;50.860;13.662;2023-02-16T09:45:10;97643.81;;;8.32;82.64
32747;BME280;19118;50.860;13.662;2023-02-16T09:50:20;97643.03;;;8.15;81.54
32747;BME280;19118;50.860;13.662;2023-02-16T09:55:24;97640.88;;;7.95;81.48
32747;BME280;19118;50.860;13.662;2023-02-16T10:05:59;97640.41;;;7.83;81.39
32747;BME280;19118;50.860;13.662;2023-02-16T10:16:50;97645.44;;;8.25;83.57
32747;BME280;19118;50.860;13.662;2023-02-16T10:21:56;97633.59;;;8.37;81.31
32747;BME280;19118;50.860;13.662;2023-02-16T10:27:02;97643.19;;;8.38;82.98
32747;BME280;19118;50.860;13.662;2023-02-16T10:32:25;97646.31;;;8.42;80.35
32747;BME280;19118;50.860;13.662;2023-02-16T10:43:22;97655.03;;;8.51;79.07
32747;BME280;19118;50.860;13.662;2023-02-16T10:48:24;97646.13;;;8.52;80.01
32747;BME280;19118;50.860;13.662;2023-02-16T10:58:39;97621.84;;;8.72;82.01
32747;BME280;19118;50.860;13.662;2023-02-16T11:03:47;97613.94;;;8.72;83.14
32747;BME280;19118;50.860;13.662;2023-02-16T11:08:57;97619.28;;;8.95;82.01
32747;BME280;19118;50.860;13.662;2023-02-16T11:14:03;97617.56;;;9.02;80.65
32747;BME280;19118;50.860;13.662;2023-02-16T11:19:19;97607.84;;;9.03;80.54
32747;BME280;19118;50.860;13.662;2023-02-16T11:24:25;97605.59;;;9.23;79.37
32747;BME280;19118;50.860;13.662;2023-02-16T11:29:26;97611.31;;;9.34;81.22
32747;BME280;19118;50.860;13.662;2023-02-16T11:34:35;97606.84;;;9.35;78.78
32747;BME280;19118;50.860;13.662;2023-02-16T11:39:38;97601.53;;;9.43;77.27
32747;BME280;19118;50.860;13.662;2023-02-16T11:44:41;97597.94;;;9.59;80.19
32747;BME280;19118;50.860;13.662;2023-02-16T11:49:43;97600.06;;;9.63;73.85
32747;BME280;19118;50.860;13.662;2023-02-16T11:54:52;97603.94;;;9.76;73.21
32747;BME280;19118;50.860;13.662;2023-02-16T11:59:54;97608.84;;;9.79;73.58
32747;BME280;19118;50.860;13.662;2023-02-16T12:06:02;97603.41;;;9.95;74.34
32747;BME280;19118;50.860;13.662;2023-02-16T12:11:17;97580.72;;;9.86;73.30
32747;BME280;19118;50.860;13.662;2023-02-16T12:22:06;97570.94;;;10.09;72.23
32747;BME280;19118;50.860;13.662;2023-02-16T12:27:19;97568.16;;;10.26;71.37
32747;BME280;19118;50.860;13.662;2023-02-16T12:38:07;97565.50;;;10.26;67.50
32747;BME280;19118;50.860;13.662;2023-02-16T12:43:37;97572.84;;;10.15;67.15
32747;BME280;19118;50.860;13.662;2023-02-16T12:54:07;97567.69;;;10.37;67.59
32747;BME280;19118;50.860;13.662;2023-02-16T12:59:17;97572.34;;;10.35;64.94
32747;BME280;19118;50.860;13.662;2023-02-16T13:15:00;97568.38;;;10.01;64.41
32747;BME280;19118;50.860;13.662;2023-02-16T13:20:02;97567.38;;;10.02;64.75
32747;BME280;19118;50.860;13.662;2023-02-16T13:25:35;97556.44;;;10.05;64.91
32747;BME280;19118;50.860;13.662;2023-02-16T13:30:52;97561.66;;;10.28;65.24
32747;BME280;19118;50.860;13.662;2023-02-16T13:46:28;97555.94;;;10.39;66.71
32747;BME280;19118;50.860;13.662;2023-02-16T13:51:42;97550.91;;;10.30;66.96
32747;BME280;19118;50.860;13.662;2023-02-16T13:56:43;97556.97;;;10.01;67.25
32747;BME280;19118;50.860;13.662;2023-02-16T14:01:48;97563.16;;;9.93;67.17
32747;BME280;19118;50.860;13.662;2023-02-16T14:07:52;97559.06;;;9.90;67.58
32747;BME280;19118;50.860;13.662;2023-02-16T14:12:37;97568.44;;;9.93;66.21
32747;BME280;19118;50.860;13.662;2023-02-16T14:17:38;97567.84;;;9.83;65.79
32747;BME280;19118;50.860;13.662;2023-02-16T14:22:45;97566.59;;;9.79;65.59
32747;BME280;19118;50.860;13.662;2023-02-16T14:27:53;97559.09;;;9.68;67.77
32747;BME280;19118;50.860;13.662;2023-02-16T14:33:02;97567.19;;;9.43;67.61
32747;BME280;19118;50.860;13.662;2023-02-16T14:38:14;97555.22;;;9.32;67.74
32747;BME280;19118;50.860;13.662;2023-02-16T14:59:47;97554.31;;;8.63;75.25
32747;BME280;19118;50.860;13.662;2023-02-16T15:04:50;97562.41;;;8.62;76.63
32747;BME280;19118;50.860;13.662;2023-02-16T15:09:54;97560.94;;;8.51;76.34
32747;BME280;19118;50.860;13.662;2023-02-16T15:15:17;97562.66;;;8.20;76.04
32747;BME280;19118;50.860;13.662;2023-02-16T15:20:19;97560.72;;;7.89;78.03
32747;BME280;19118;50.860;13.662;2023-02-16T15:25:32;97549.72;;;7.69;81.45
32747;BME280;19118;50.860;13.662;2023-02-16T15:30:36;97542.66;;;7.45;84.02
32747;BME280;19118;50.860;13.662;2023-02-16T15:35:42;97542.81;;;7.19;85.71
32747;BME280;19118;50.860;13.662;2023-02-16T15:40:43;97528.63;;;6.88;86.64
32747;BME280;19118;50.860;13.662;2023-02-16T15:45:49;97528.56;;;6.63;86.98
32747;BME280;19118;50.860;13.662;2023-02-16T15:50:56;97536.69;;;6.44;86.92
32747;BME280;19118;50.860;13.662;2023-02-16T15:56:01;97533.25;;;6.09;87.27
32747;BME280;19118;50.860;13.662;2023-02-16T16:01:03;97542.03;;;5.92;87.40
32747;BME280;19118;50.860;13.662;2023-02-16T16:06:03;97532.34;;;5.75;88.21
32747;BME280;19118;50.860;13.662;2023-02-16T16:11:08;97530.22;;;5.52;88.89
32747;BME280;19118;50.860;13.662;2023-02-16T16:16:08;97529.66;;;5.23;91.92
32747;BME280;19118;50.860;13.662;2023-02-16T16:21:13;97527.28;;;5.12;92.38
32747;BME280;19118;50.860;13.662;2023-02-16T16:26:16;97533.03;;;5.15;91.54
32747;BME280;19118;50.860;13.662;2023-02-16T16:31:31;97536.03;;;5.03;91.85
32747;BME280;19118;50.860;13.662;2023-02-16T16:36:53;97527.22;;;4.58;94.34
32747;BME280;19118;50.860;13.662;2023-02-16T16:42:14;97534.81;;;4.79;92.14
32747;BME280;19118;50.860;13.662;2023-02-16T16:47:37;97533.13;;;4.60;91.83
32747;BME280;19118;50.860;13.662;2023-02-16T16:52:44;97538.25;;;4.34;93.12
32747;BME280;19118;50.860;13.662;2023-02-16T16:57:45;97541.91;;;4.14;94.52
32747;BME280;19118;50.860;13.662;2023-02-16T17:02:46;97530.94;;;4.01;95.79
32747;BME280;19118;50.860;13.662;2023-02-16T17:07:47;97531.06;;;4.09;94.92
32747;BME280;19118;50.860;13.662;2023-02-16T17:12:55;97526.16;;;4.24;93.22
32747;BME280;19118;50.860;13.662;2023-02-16T17:17:57;97524.25;;;4.16;92.37
32747;BME280;19118;50.860;13.662;2023-02-16T17:22:58;97529.22;;;4.19;92.95
32747;BME280;19118;50.860;13.662;2023-02-16T17:28:03;97527.22;;;4.58;88.53
32747;BME280;19118;50.860;13.662;2023-02-16T17:33:04;97530.84;;;4.75;86.43
32747;BME280;19118;50.860;13.662;2023-02-16T17:38:12;97532.56;;;4.84;85.23
32747;BME280;19118;50.860;13.662;2023-02-16T17:43:13;97526.38;;;5.03;82.53
32747;BME280;19118;50.860;13.662;2023-02-16T17:48:17;97518.75;;;5.10;80.71
32747;BME280;19118;50.860;13.662;2023-02-16T17:53:20;97522.25;;;5.36;77.49
32747;BME280;19118;50.860;13.662;2023-02-16T17:58:22;97514.06;;;5.39;76.50
32747;BME280;19118;50.860;13.662;2023-02-16T18:03:23;97515.03;;;5.38;75.96
32747;BME280;19118;50.860;13.662;2023-02-16T18:08:24;97521.41;;;5.36;75.22
32747;BME280;19118;50.860;13.662;2023-02-16T18:13:24;97506.81;;;5.33;74.27
32747;BME280;19118;50.860;13.662;2023-02-16T18:18:24;97510.53;;;5.31;75.42
32747;BME280;19118;50.860;13.662;2023-02-16T18:23:25;97523.22;;;5.35;74.60
32747;BME280;19118;50.860;13.662;2023-02-16T18:28:27;97539.78;;;5.36;74.52
32747;BME280;19118;50.860;13.662;2023-02-16T18:33:28;97538.63;;;5.38;74.43
32747;BME280;19118;50.860;13.662;2023-02-16T18:38:28;97531.59;;;5.39;74.29
32747;BME280;19118;50.860;13.662;2023-02-16T18:43:29;97525.06;;;5.43;75.37
32747;BME280;19118;50.860;13.662;2023-02-16T18:48:30;97533.16;;;5.49;76.10
32747;BME280;19118;50.860;13.662;2023-02-16T18:53:30;97529.41;;;5.52;77.38
32747;BME280;19118;50.860;13.662;2023-02-16T18:58:32;97526.34;;;5.57;78.67
32747;BME280;19118;50.860;13.662;2023-02-16T19:03:32;97527.06;;;5.67;79.67
32747;BME280;19118;50.860;13.662;2023-02-16T19:08:33;97520.28;;;5.82;82.21
32747;BME280;19118;50.860;13.662;2023-02-16T19:13:33;97516.44;;;5.76;86.18
32747;BME280;19118;50.860;13.662;2023-02-16T19:18:34;97518.41;;;5.74;91.78
32747;BME280;19118;50.860;13.662;2023-02-16T19:23:35;97525.19;;;5.85;95.83
32747;BME280;19118;50.860;13.662;2023-02-16T19:28:36;97520.53;;;5.97;99.19
32747;BME280;19118;50.860;13.662;2023-02-16T19:33:37;97511.84;;;5.96;100.00
32747;BME280;19118;50.860;13.662;2023-02-16T19:38:37;97505.56;;;5.89;100.00
32747;BME280;19118;50.860;13.662;2023-02-16T19:43:39;97508.78;;;6.01;100.00
32747;BME280;19118;50.860;13.662;2023-02-16T19:48:39;97503.31;;;5.94;100.00
32747;BME280;19118;50.860;13.662;2023-02-16T19:53:41;97495.44;;;5.94;100.00
32747;BME280;19118;50.860;13.662;2023-02-16T19:58:42;97497.13;;;6.03;100.00
32747;BME280;19118;50.860;13.662;2023-02-16T20:03:43;97495.13;;;5.97;100.00
32747;BME280;19118;50.860;13.662;2023-02-16T20:08:45;97489.53;;;5.92;100.00
32747;BME280;19118;50.860;13.662;2023-02-16T20:13:46;97492.84;;;6.02;100.00
32747;BME280;19118;50.860;13.662;2023-02-16T20:18:47;97497.44;;;6.00;100.00
32747;BME280;19118;50.860;13.662;2023-02-16T20:23:49;97489.59;;;6.08;100.00
32747;BME280;19118;50.860;13.662;2023-02-16T20:28:50;97497.31;;;6.10;100.00
32747;BME280;19118;50.860;13.662;2023-02-16T20:33:51;97483.88;;;6.13;100.00
32747;BME280;19118;50.860;13.662;2023-02-16T20:38:52;97474.22;;;6.22;100.00
32747;BME280;19118;50.860;13.662;2023-02-16T20:43:53;97477.59;;;6.06;100.00
32747;BME280;19118;50.860;13.662;2023-02-16T20:48:53;97479.09;;;6.08;100.00
32747;BME280;19118;50.860;13.662;2023-02-16T20:53:53;97468.97;;;6.22;100.00
32747;BME280;19118;50.860;13.662;2023-02-16T20:58:55;97478.66;;;6.21;100.00
32747;BME280;19118;50.860;13.662;2023-02-16T21:03:57;97476.72;;;6.23;100.00
32747;BME280;19118;50.860;13.662;2023-02-16T21:08:58;97468.34;;;6.28;100.00
32747;BME280;19118;50.860;13.662;2023-02-16T21:13:58;97478.53;;;6.31;100.00
32747;BME280;19118;50.860;13.662;2023-02-16T21:18:59;97468.69;;;6.33;100.00
32747;BME280;19118;50.860;13.662;2023-02-16T21:23:59;97463.59;;;6.31;100.00
32747;BME280;19118;50.860;13.662;2023-02-16T21:28:59;97457.19;;;6.34;100.00
32747;BME280;19118;50.860;13.662;2023-02-16T21:34:00;97447.97;;;6.22;100.00
32747;BME280;19118;50.860;13.662;2023-02-16T21:39:00;97443.84;;;6.19;100.00
32747;BME280;19118;50.860;13.662;2023-02-16T21:44:04;97436.78;;;6.20;100.00
32747;BME280;19118;50.860;13.662;2023-02-16T21:49:08;97426.94;;;6.22;100.00
32747;BME280;19118;50.860;13.662;2023-02-16T21:54:10;97428.78;;;6.29;100.00
32747;BME280;19118;50.860;13.662;2023-02-16T21:59:14;97428.09;;;6.19;100.00
32747;BME280;19118;50.860;13.662;2023-02-16T22:04:17;97420.34;;;6.09;100.00
32747;BME280;19118;50.860;13.662;2023-02-16T22:09:20;97413.16;;;6.20;100.00
32747;BME280;19118;50.860;13.662;2023-02-16T22:14:21;97411.84;;;6.16;100.00
32747;BME280;19118;50.860;13.662;2023-02-16T22:19:21;97415.63;;;6.21;100.00
32747;BME280;19118;50.860;13.662;2023-02-16T22:24:22;97406.28;;;6.19;100.00
32747;BME280;19118;50.860;13.662;2023-02-16T22:29:22;97395.63;;;6.28;100.00
32747;BME280;19118;50.860;13.662;2023-02-16T22:34:22;97400.91;;;6.36;100.00
32747;BME280;19118;50.860;13.662;2023-02-16T22:39:23;97390.22;;;6.30;100.00
32747;BME280;19118;50.860;13.662;2023-02-16T22:44:23;97394.47;;;6.31;100.00
32747;BME280;19118;50.860;13.662;2023-02-16T22:49:23;97393.50;;;6.24;100.00
32747;BME280;19118;50.860;13.662;2023-02-16T22:54:24;97393.16;;;6.27;100.00
32747;BME280;19118;50.860;13.662;2023-02-16T22:59:24;97375.09;;;6.16;100.00
32747;BME280;19118;50.860;13.662;2023-02-16T23:04:24;97376.72;;;6.17;100.00
32747;BME280;19118;50.860;13.662;2023-02-16T23:09:24;97351.78;;;6.21;100.00
32747;BME280;19118;50.860;13.662;2023-02-16T23:14:25;97351.09;;;6.10;100.00
32747;BME280;19118;50.860;13.662;2023-02-16T23:19:25;97335.09;;;5.88;100.00
32747;BME280;19118;50.860;13.662;2023-02-16T23:24:26;97342.72;;;5.57;100.00
32747;BME280;19118;50.860;13.662;2023-02-16T23:29:26;97338.69;;;5.36;100.00
32747;BME280;19118;50.860;13.662;2023-02-16T23:34:26;97331.16;;;5.41;100.00
32747;BME280;19118;50.860;13.662;2023-02-16T23:39:27;97321.78;;;5.73;100.00
32747;BME280;19118;50.860;13.662;2023-02-16T23:44:27;97325.00;;;6.09;100.00
32747;BME280;19118;50.860;13.662;2023-02-16T23:49:27;97319.94;;;6.07;100.00
32747;BME280;19118;50.860;13.662;2023-02-16T23:54:28;97323.06;;;6.19;100.00
32747;BME280;19118;50.860;13.662;2023-02-16T23:59:28;97306.31;;;6.04;100.00
